Thayer, Kansas
Current Conditions -  °F | °C
As of 12:52 AM on Sunday 21 Dec 2014 (Local Time) from KPPF Reporting Station
Overcast Overcast  
Wind Chill: 36°   Ceiling: 1400
Heat Index: 41°   Visibility: 10mi
Dew Point: 37°   Wind: 8mph
Humidity: 86%   Direction: 190°S
Pressure: 30.13"   Gusts: NA
Location:  37.49°N, 95.47°W
Report Text: KPPF 210652Z AUTO 19007KT 10SM OVC014 05/03 A3013 RMK AO2 SLP206 T00500028
Loading
Personal Weather Stations






























Interactive Weather Map New forecast layout! Learn more

10-Day Weather Forecast

Advertisements
Track Severe Weather on mobile